Huvudsida
METAR-TAF:

METAR-TAF

Flygplatser :

Lar flygplats

Lar, Iran

latitud: 27-40-26N, longitud: 054-22-53E, höjd: 792 m

Aktuellt väderrapport

Denna rapport gjordes för 1 timme och 42 minuter sedan, klockan 21:00 UTC
Stilla vind
Temperatur 10°C
Fuktighet 40%
Tryck 1015 hPa
Sikt 10 km eller mer
Inga moln under 1 500 m eller inga cumulonimbus

METAR: OISL 152100Z 00000KT CAVOK 10/M03 Q1015

Tid: 02:12 (22:42 UTC)

Väderprognos

Denna rapport gjordes för 4 timmar och 52 minuter sedan, klockan 17:50 UTC
Prognos gäller från 15 kl. 18 UTC till 16 kl. 24 UTC
Vind 6 kt från syd
Sikt: 8000 m
Få moln på en höjd av 4000 ft
Blir
från 16 kl. 06 UTC till 16 kl. 09 UTC
Få moln på en höjd av 3500 ft, Cumulonimbus.
Spridda moln på en höjd av 4000 ft
Temporärt
mellan och UTC
Sannolikhet 40%
från 16 kl. 09 UTC till 16 kl. 15 UTC
Sikt: 5000 m
regn

TAF: OISL 151750Z 1518/1624 18006KT 8000 FEW040 BECMG 1606/1609 FEW035CB SCT040 BKN90 TEMPO PROB40 1609/1615 5000 RA

Aktuella väderrapporter och prognoser från 4000 flygplatser (METAR- och TAF-rapporter).

De tillgängliga stationerna syns som gula och röda prickar på kartan.

För musen över prickarna för att se namnen på stationerna.

Klicka sedan för att få väderrapporter och prognoser.

För att ändra kartan: Klicka på de gröna knapparna med ett svart kors på för att zooma in; den gröna knappen med ett streck på för att zooma ut; eller på de gröna pilarna för angränsande kartor.


METAR-TAF: